首页
METAR-TAF:

METAR-TAF

机场 :

霍夫, 德国

纬度: 50-19N, 经度: 011-53E, 海拔: 567米

当前天气观测

该预报发布于11小时和56分钟前的17:50 UTC
风速16节,风向西南
温度 7°C
湿度 53%
气压 1020 hPa
能见度10公里或以上
多云层高于3000英尺
多云层高于14000英尺

METAR: EDQM 221750Z 23016KT 9999 BKN030 BKN140 07/M02 Q1020

时间: 06:46 (05:46 UTC)

预报

该预报发布于12小时和46分钟前的17:00 UTC
预报有效从22日的 18点(UTC)到 23日的 03点(UTC)
风速15节,风向西南,有时为30节阵风
能见度10公里或以上
少量云层高于1200英尺
多云层高于3000英尺
短暂存在
从 22日的 20点(UTC)到 23日的 03点(UTC)
能見度: 3000
阴天层高于1200英尺
雨, 毛毛雨

TAF: EDQM 221700Z 2218/2303 23015G30KT 9999 FEW012 BKN030 TEMPO 2220/2303 3000 RADZ OVC012

超过4000个机场的气象观测和天气预报(METAR&TAF报告)。

可查询的气象台以黄色和红色小点在地图上表示。

将鼠标移到小点上方,可查看气象台名称。

然后点击查看天气观测和预报。

如需切换地图:点击带黑十字的绿色按钮放大地图;点击带横线的绿色按钮缩小地图;或者点击绿色箭头查看邻近地区的地图。


METAR-TAF: